createdAt,value
2023-04-25T00:01:07.570Z,10.30
2023-04-25T00:03:37.738Z,10.37
2023-04-25T00:06:06.527Z,10.49
2023-04-25T00:08:35.518Z,10.56
2023-04-25T00:11:04.343Z,10.71
2023-04-25T00:13:32.842Z,10.70
2023-04-25T00:16:01.293Z,10.66
2023-04-25T00:18:30.143Z,10.81
2023-04-25T00:21:00.750Z,10.91
2023-04-25T00:23:28.749Z,10.85
2023-04-25T00:25:57.273Z,10.81
2023-04-25T00:28:25.919Z,10.83
2023-04-25T00:30:54.063Z,10.86
2023-04-25T00:33:22.377Z,10.94
2023-04-25T00:35:50.951Z,11.13
2023-04-25T00:38:20.399Z,10.78
2023-04-25T00:40:48.625Z,11.07
2023-04-25T00:43:17.431Z,10.94
2023-04-25T00:45:45.613Z,10.72
2023-04-25T00:48:15.292Z,10.94
2023-04-25T00:50:44.159Z,10.89
2023-04-25T00:53:12.434Z,10.68
2023-04-25T00:55:42.019Z,10.56
2023-04-25T00:58:10.320Z,10.37
2023-04-25T01:00:39.262Z,10.66
2023-04-25T01:03:08.631Z,10.66
2023-04-25T01:05:37.109Z,10.40
2023-04-25T01:08:05.616Z,10.34
2023-04-25T01:10:34.392Z,10.67
2023-04-25T01:13:04.450Z,10.48
2023-04-25T01:15:32.724Z,10.39
2023-04-25T01:18:02.519Z,10.43
2023-04-25T01:20:31.804Z,10.58
2023-04-25T01:23:03.386Z,10.53
2023-04-25T01:25:32.239Z,10.69
2023-04-25T01:28:01.143Z,10.50
2023-04-25T01:30:29.948Z,10.55
2023-04-25T01:32:58.904Z,10.38
2023-04-25T01:35:27.151Z,10.44
2023-04-25T01:37:56.386Z,10.54
2023-04-25T01:40:26.813Z,10.55
2023-04-25T01:42:55.132Z,10.40
2023-04-25T01:45:24.347Z,10.56
2023-04-25T01:47:52.485Z,10.50
2023-04-25T01:50:21.436Z,10.43
2023-04-25T01:52:50.732Z,10.59
2023-04-25T01:55:18.928Z,10.50
2023-04-25T01:57:48.737Z,10.67
2023-04-25T02:00:17.178Z,10.63
2023-04-25T02:02:45.536Z,10.73
2023-04-25T02:05:14.591Z,10.66
2023-04-25T02:07:42.779Z,10.59
2023-04-25T02:10:11.674Z,10.50
2023-04-25T02:12:40.365Z,10.67
2023-04-25T02:15:11.017Z,10.64
2023-04-25T02:17:40.673Z,10.62
2023-04-25T02:20:09.581Z,10.62
2023-04-25T02:22:38.075Z,10.72
2023-04-25T02:25:07.625Z,10.71
2023-04-25T02:27:36.000Z,10.72
2023-04-25T02:30:06.204Z,10.52
2023-04-25T02:32:37.345Z,10.49
